Time;durP1;ratioP1;P1;durP2;ratioP2;P2;SDS_P1;SDS_P2;PMS_P1;PMS_P2;Temp;Humidity;BMP_temperature;BMP_pressure;BME280_temperature;BME280_humidity;BME280_pressure;Samples;Min_cycle;Max_cycle;Signal;HPM_P1;HPM_P2
2023/12/25 00:01:08;;;;;;;0.17;0.17;;;;;;;18.00;72.79;100271.69;5069299;28;20037;-77
2023/12/25 00:03:33;;;;;;;0.20;0.20;;;;;;;17.42;75.18;100276.25;5069380;28;20439;-77
2023/12/25 00:05:59;;;;;;;0.10;0.10;;;;;;;18.28;71.23;100278.97;5050153;28;20051;-77
2023/12/25 00:08:24;;;;;;;0.20;0.20;;;;;;;18.80;69.15;100297.16;5054153;28;20388;-76
2023/12/25 00:10:49;;;;;;;0.20;0.20;;;;;;;18.77;68.90;100295.00;5068723;28;20032;-77
2023/12/25 00:13:15;;;;;;;0.10;0.10;;;;;;;18.70;68.81;100293.75;5051657;28;20029;-77
2023/12/25 00:15:40;;;;;;;0.20;0.20;;;;;;;17.69;73.03;100299.44;5070158;28;20033;-77
2023/12/25 00:18:05;;;;;;;0.28;0.28;;;;;;;18.31;71.34;100297.44;5070838;28;20048;-77
2023/12/25 00:20:31;;;;;;;0.20;0.20;;;;;;;17.90;72.22;100293.53;5071183;28;20020;-77
2023/12/25 00:22:56;;;;;;;0.13;0.13;;;;;;;18.35;71.12;100300.41;5071449;28;20033;-76
2023/12/25 00:25:21;;;;;;;0.10;0.10;;;;;;;18.08;71.45;100300.94;5051508;28;20080;-77
2023/12/25 00:27:47;;;;;;;0.15;0.15;;;;;;;17.99;71.85;100307.28;5069306;28;20045;-76
2023/12/25 00:30:13;;;;;;;0.10;0.10;;;;;;;18.84;69.46;100306.34;5069405;28;20056;-76
2023/12/25 00:32:38;;;;;;;0.13;0.13;;;;;;;17.91;71.26;100332.38;5062868;28;20110;-77
2023/12/25 00:35:04;;;;;;;0.20;0.20;;;;;;;18.20;71.17;100312.25;5062047;28;20025;-76
2023/12/25 00:37:29;;;;;;;0.20;0.20;;;;;;;17.94;71.46;100321.78;5069469;28;20534;-78
2023/12/25 00:39:55;;;;;;;0.20;0.20;;;;;;;18.54;69.49;100323.06;5069203;28;20036;-75
2023/12/25 00:42:20;;;;;;;0.20;0.20;;;;;;;18.34;71.21;100320.53;5069753;28;20033;-78
2023/12/25 00:44:46;;;;;;;0.20;0.20;;;;;;;18.65;68.45;100321.03;5068978;28;20044;-75
2023/12/25 00:47:11;;;;;;;0.20;0.20;;;;;;;18.66;69.03;100318.00;5051603;28;20021;-77
2023/12/25 00:49:36;;;;;;;0.10;0.10;;;;;;;18.15;70.64;100335.97;5068640;28;20035;-76
2023/12/25 00:52:02;;;;;;;0.20;0.20;;;;;;;19.15;68.25;100331.25;5068849;28;20060;-75
2023/12/25 00:54:29;;;;;;;0.20;0.20;;;;;;;18.98;67.35;100334.50;5069772;28;20071;-77
2023/12/25 00:56:54;;;;;;;0.20;0.20;;;;;;;18.58;69.56;100334.16;5052313;28;20032;-76
2023/12/25 00:59:20;;;;;;;0.20;0.20;;;;;;;18.21;71.32;100341.06;5062829;28;20025;-77
2023/12/25 01:01:45;;;;;;;0.22;0.22;;;;;;;18.82;68.70;100345.84;5045877;28;20028;-77
2023/12/25 01:04:10;;;;;;;0.20;0.20;;;;;;;18.76;69.35;100326.06;5073147;28;20127;-76
2023/12/25 01:06:36;;;;;;;0.20;0.20;;;;;;;18.59;69.83;100319.47;5073371;28;20036;-76
2023/12/25 01:09:01;;;;;;;0.30;0.30;;;;;;;18.41;69.72;100321.00;5073252;28;20492;-75
2023/12/25 01:11:27;;;;;;;0.20;0.20;;;;;;;18.09;70.94;100310.72;5072751;28;20036;-77
2023/12/25 01:13:53;;;;;;;0.10;0.10;;;;;;;17.98;71.15;100330.16;5073236;28;20386;-76
2023/12/25 01:16:18;;;;;;;0.20;0.20;;;;;;;17.96;70.58;100310.59;5072626;28;20033;-76
2023/12/25 01:18:43;;;;;;;0.25;0.25;;;;;;;17.60;71.76;100326.41;5073204;28;20051;-75
2023/12/25 01:21:09;;;;;;;0.10;0.10;;;;;;;17.87;70.40;100332.16;5073809;28;20311;-77
2023/12/25 01:23:34;;;;;;;0.13;0.13;;;;;;;18.41;68.75;100310.94;5055802;28;20044;-77
2023/12/25 01:26:00;;;;;;;0.20;0.20;;;;;;;18.20;69.51;100336.72;5073810;28;20028;-76
2023/12/25 01:28:25;;;;;;;0.20;0.20;;;;;;;18.35;68.25;100346.66;5070372;28;20052;-76
2023/12/25 01:30:50;;;;;;;0.15;0.15;;;;;;;18.25;69.02;100358.44;5053876;28;20037;-76
2023/12/25 01:33:16;;;;;;;0.17;0.17;;;;;;;18.72;67.12;100351.41;5053291;28;20031;-77
2023/12/25 01:35:41;;;;;;;0.10;0.10;;;;;;;18.77;66.08;100365.78;5053152;28;20041;-77
2023/12/25 01:38:07;;;;;;;0.20;0.20;;;;;;;18.30;66.39;100358.38;5035482;28;20024;-76
2023/12/25 01:40:32;;;;;;;0.13;0.13;;;;;;;18.04;68.14;100372.53;5053561;28;20056;-79
2023/12/25 01:42:57;;;;;;;0.30;0.30;;;;;;;18.00;68.92;100366.03;5053251;28;20041;-77
2023/12/25 01:45:23;;;;;;;0.20;0.20;;;;;;;18.14;68.34;100367.78;5053141;28;20037;-77
2023/12/25 01:47:49;;;;;;;0.20;0.20;;;;;;;17.36;70.85;100379.78;5052940;28;20024;-78
2023/12/25 01:50:15;;;;;;;0.10;0.10;;;;;;;17.66;70.12;100370.66;5053201;28;20024;-77
2023/12/25 01:52:41;;;;;;;0.20;0.20;;;;;;;17.54;71.21;100371.81;5052608;28;20052;-76
2023/12/25 01:55:08;;;;;;;0.20;0.20;;;;;;;18.38;67.57;100375.97;5051908;28;20037;-76
2023/12/25 01:57:35;;;;;;;0.20;0.20;;;;;;;18.42;67.33;100386.03;5052817;28;20405;-78
2023/12/25 02:00:01;;;;;;;0.20;0.20;;;;;;;17.44;71.24;100373.75;5062396;28;20040;-77
2023/12/25 02:02:26;;;;;;;0.13;0.13;;;;;;;17.84;70.07;100389.81;5072172;28;20021;-75
2023/12/25 02:04:51;;;;;;;0.20;0.20;;;;;;;17.97;68.77;100389.16;5072149;28;20464;-75
2023/12/25 02:07:18;;;;;;;0.20;0.20;;;;;;;17.79;69.75;100386.31;5071732;28;20114;-77
2023/12/25 02:09:49;;;;;;;0.25;0.25;;;;;;;18.23;68.32;100373.41;5070580;28;20032;-76
2023/12/25 02:12:15;;;;;;;0.20;0.20;;;;;;;17.71;71.39;100376.06;5071612;28;20060;-77
2023/12/25 02:14:41;;;;;;;0.20;0.20;;;;;;;17.25;71.12;100367.34;5072018;28;20066;-78
2023/12/25 02:17:08;;;;;;;0.20;0.20;;;;;;;17.57;69.96;100375.88;5071853;28;20178;-77
2023/12/25 02:19:43;;;;;;;0.10;0.10;;;;;;;17.48;70.66;100370.22;5071529;28;20037;-76
2023/12/25 02:22:09;;;;;;;0.17;0.17;;;;;;;17.99;68.47;100361.66;5071342;28;20120;-77
2023/12/25 02:25:07;;;;;;;0.20;0.20;;;;;;;18.70;66.53;100362.59;5069570;28;20044;-77
2023/12/25 02:27:33;;;;;;;0.20;0.20;;;;;;;17.58;69.05;100371.25;4964731;28;20198;-77
2023/12/25 02:29:58;;;;;;;0.20;0.20;;;;;;;17.57;69.45;100385.94;4969586;28;20039;-77
2023/12/25 02:32:24;;;;;;;0.30;0.30;;;;;;;17.51;69.60;100375.09;4970363;28;20518;-76
2023/12/25 02:34:50;;;;;;;0.10;0.10;;;;;;;17.72;67.57;100374.94;4971186;28;20260;-75
2023/12/25 02:37:15;;;;;;;0.17;0.17;;;;;;;17.86;67.02;100381.38;4970680;28;20097;-77
2023/12/25 02:39:41;;;;;;;0.25;0.25;;;;;;;17.40;68.80;100397.13;4953485;28;20047;-77
2023/12/25 02:42:06;;;;;;;0.10;0.10;;;;;;;17.90;67.61;100387.84;4979087;28;20042;-76
2023/12/25 02:44:31;;;;;;;0.28;0.28;;;;;;;17.58;67.83;100382.09;4989015;28;20131;-77
2023/12/25 02:46:57;;;;;;;0.10;0.10;;;;;;;18.13;65.86;100363.47;4989801;28;20026;-76
2023/12/25 02:49:22;;;;;;;0.20;0.20;;;;;;;18.12;65.93;100372.69;4988607;28;20042;-75
2023/12/25 02:51:48;;;;;;;0.20;0.20;;;;;;;17.78;66.66;100385.50;4988875;28;20041;-78
2023/12/25 02:54:13;;;;;;;0.20;0.20;;;;;;;18.11;65.58;100386.59;4989420;28;20042;-76
2023/12/25 02:56:40;;;;;;;0.28;0.28;;;;;;;17.84;66.64;100378.94;4989098;28;20108;-77
2023/12/25 02:59:05;;;;;;;0.15;0.15;;;;;;;17.50;67.53;100380.81;4990200;28;20239;-76
2023/12/25 03:01:30;;;;;;;0.20;0.20;;;;;;;17.66;67.44;100379.63;4989314;28;20038;-77
2023/12/25 03:03:56;;;;;;;0.20;0.20;;;;;;;18.52;64.86;100382.41;5009269;28;20369;-77
2023/12/25 03:06:21;;;;;;;0.20;0.20;;;;;;;18.47;63.98;100379.75;5070674;28;20543;-77
2023/12/25 03:08:47;;;;;;;0.20;0.20;;;;;;;17.73;67.23;100387.47;5070778;28;20040;-76
2023/12/25 03:11:12;;;;;;;0.20;0.20;;;;;;;18.05;66.15;100390.44;5071105;28;20035;-78
2023/12/25 03:13:38;;;;;;;0.20;0.20;;;;;;;18.09;65.98;100396.94;5052304;28;20032;-78
2023/12/25 03:16:07;;;;;;;0.20;0.20;;;;;;;17.76;68.54;100406.72;5070662;28;20028;-77
2023/12/25 03:18:33;;;;;;;0.20;0.20;;;;;;;18.09;66.35;100413.25;5070508;28;20028;-79
2023/12/25 03:20:59;;;;;;;0.10;0.10;;;;;;;17.81;67.95;100401.22;5066781;28;20104;-77
2023/12/25 03:23:24;;;;;;;0.10;0.10;;;;;;;17.62;68.53;100407.63;5068436;28;20039;-78
2023/12/25 03:25:50;;;;;;;0.20;0.20;;;;;;;18.26;66.65;100406.28;5071160;28;20035;-77
2023/12/25 03:28:15;;;;;;;0.10;0.10;;;;;;;17.65;68.17;100397.00;5069935;28;20508;-77
2023/12/25 03:30:40;;;;;;;0.20;0.20;;;;;;;17.28;70.00;100402.91;5070304;28;20044;-78
2023/12/25 03:33:07;;;;;;;0.20;0.20;;;;;;;17.73;68.32;100410.00;5069340;28;20040;-77
2023/12/25 03:35:33;;;;;;;0.15;0.15;;;;;;;17.56;69.42;100420.44;5069437;28;20028;-76
2023/12/25 03:37:58;;;;;;;0.25;0.25;;;;;;;18.12;67.04;100432.53;5053088;28;20411;-76
2023/12/25 03:40:24;;;;;;;0.20;0.20;;;;;;;17.92;68.30;100438.16;5071173;28;20036;-78
2023/12/25 03:42:49;;;;;;;0.20;0.20;;;;;;;18.28;66.74;100430.47;5069626;28;20036;-75
2023/12/25 03:45:14;;;;;;;0.10;0.10;;;;;;;17.83;68.64;100423.50;5069899;28;20056;-78
2023/12/25 03:47:40;;;;;;;0.20;0.20;;;;;;;17.83;68.57;100423.50;5069974;28;20044;-76
2023/12/25 03:50:06;;;;;;;0.20;0.20;;;;;;;17.78;69.16;100422.75;5051909;28;20488;-77
2023/12/25 03:52:31;;;;;;;0.10;0.10;;;;;;;17.36;71.66;100415.09;5069934;28;20034;-77
2023/12/25 03:54:56;;;;;;;0.10;0.10;;;;;;;17.79;69.90;100432.53;5070140;28;20063;-77
2023/12/25 03:57:22;;;;;;;0.20;0.20;;;;;;;17.37;71.79;100425.69;5070537;28;20036;-77
2023/12/25 03:59:47;;;;;;;0.20;0.20;;;;;;;17.88;69.75;100431.66;5070625;28;20392;-76
2023/12/25 04:02:13;;;;;;;0.25;0.25;;;;;;;18.62;68.16;100439.44;5070807;28;20032;-75
2023/12/25 04:04:41;;;;;;;0.20;0.20;;;;;;;18.31;67.10;100440.81;5070095;28;20033;-77
2023/12/25 04:07:06;;;;;;;0.20;0.20;;;;;;;18.21;68.03;100440.91;5070083;28;20033;-76
2023/12/25 04:09:32;;;;;;;0.20;0.20;;;;;;;17.97;68.45;100443.53;5069884;28;20454;-77
2023/12/25 04:11:57;;;;;;;0.20;0.20;;;;;;;18.12;67.47;100439.91;5069900;28;20021;-76
2023/12/25 04:14:23;;;;;;;0.20;0.20;;;;;;;18.36;67.76;100443.47;5069997;28;20032;-74
2023/12/25 04:16:48;;;;;;;0.20;0.20;;;;;;;18.24;68.01;100432.97;5070799;28;20017;-76
2023/12/25 04:19:13;;;;;;;0.20;0.20;;;;;;;18.33;67.48;100463.09;5050235;28;20045;-75
2023/12/25 04:21:39;;;;;;;0.20;0.20;;;;;;;17.61;69.89;100471.22;5053480;28;20058;-75
2023/12/25 04:24:04;;;;;;;0.15;0.15;;;;;;;17.93;69.14;100463.41;5051303;28;20447;-76
2023/12/25 04:26:30;;;;;;;0.20;0.20;;;;;;;18.14;68.33;100464.91;5069199;28;20047;-76
2023/12/25 04:28:55;;;;;;;0.20;0.20;;;;;;;18.08;68.36;100453.22;5069774;28;20044;-76
2023/12/25 04:31:21;;;;;;;0.20;0.20;;;;;;;17.66;70.56;100444.84;5069336;28;20039;-77
2023/12/25 04:33:46;;;;;;;0.20;0.20;;;;;;;17.67;69.56;100440.22;5072474;28;20074;-75
2023/12/25 04:36:12;;;;;;;0.20;0.20;;;;;;;17.84;70.15;100444.19;5072892;28;20047;-77
2023/12/25 04:38:38;;;;;;;0.10;0.10;;;;;;;18.01;68.88;100441.88;5072878;28;20036;-78
2023/12/25 04:41:04;;;;;;;0.20;0.20;;;;;;;18.64;66.86;100444.59;5073405;28;20039;-76
2023/12/25 04:43:29;;;;;;;0.20;0.20;;;;;;;17.57;70.23;100434.84;5068817;28;20386;-77
2023/12/25 04:45:55;;;;;;;0.20;0.20;;;;;;;17.98;68.84;100437.00;5053118;28;20554;-77
2023/12/25 04:48:20;;;;;;;0.20;0.20;;;;;;;18.46;67.49;100445.31;5052887;28;20154;-77
2023/12/25 04:50:46;;;;;;;0.17;0.17;;;;;;;17.85;69.96;100455.84;5052665;28;20550;-76
2023/12/25 04:53:12;;;;;;;0.10;0.10;;;;;;;17.85;70.31;100453.13;5053605;28;20192;-76
2023/12/25 04:55:39;;;;;;;0.10;0.10;;;;;;;18.30;67.31;100448.16;5052528;28;20033;-77
2023/12/25 04:58:04;;;;;;;0.20;0.20;;;;;;;18.06;69.14;100454.63;5035546;28;20049;-76
2023/12/25 05:00:31;;;;;;;0.10;0.10;;;;;;;18.71;66.57;100458.69;5071948;28;20036;-77
2023/12/25 05:02:57;;;;;;;0.25;0.25;;;;;;;17.61;70.02;100449.50;5070180;28;20041;-77
2023/12/25 05:05:22;;;;;;;0.13;0.13;;;;;;;18.33;67.31;100444.88;5071776;28;20030;-77
2023/12/25 05:07:47;;;;;;;0.20;0.20;;;;;;;18.51;66.52;100458.88;5072268;28;20032;-76
2023/12/25 05:10:13;;;;;;;0.10;0.10;;;;;;;18.36;67.28;100476.94;5071641;28;20467;-76
2023/12/25 05:12:38;;;;;;;0.20;0.20;;;;;;;18.00;68.19;100472.06;5072215;28;20033;-78
2023/12/25 05:15:04;;;;;;;0.13;0.13;;;;;;;17.64;69.19;100466.03;5071765;28;20052;-77
2023/12/25 05:17:29;;;;;;;0.25;0.25;;;;;;;18.07;67.53;100480.72;5054203;28;20056;-76
2023/12/25 05:19:55;;;;;;;0.10;0.10;;;;;;;18.54;66.04;100474.63;5072706;28;20453;-77
2023/12/25 05:22:20;;;;;;;0.10;0.10;;;;;;;18.36;66.02;100476.13;5072347;28;20040;-77
2023/12/25 05:24:45;;;;;;;0.10;0.10;;;;;;;18.59;66.00;100480.03;5071644;28;20053;-76
2023/12/25 05:27:11;;;;;;;0.20;0.20;;;;;;;18.59;64.86;100467.25;5071672;28;20771;-76
2023/12/25 05:29:37;;;;;;;0.20;0.20;;;;;;;18.16;65.87;100476.31;5071785;28;20049;-76
2023/12/25 05:32:02;;;;;;;0.20;0.20;;;;;;;18.29;65.77;100470.22;5072593;28;20366;-77
2023/12/25 05:34:28;;;;;;;0.20;0.20;;;;;;;18.55;64.83;100462.66;5071357;28;20058;-77
2023/12/25 05:36:53;;;;;;;0.10;0.10;;;;;;;18.32;65.82;100469.63;5071408;28;20105;-77
2023/12/25 05:39:19;;;;;;;0.20;0.20;;;;;;;18.15;66.08;100475.50;5071062;28;20700;-76
2023/12/25 05:41:45;;;;;;;0.10;0.10;;;;;;;18.13;65.39;100468.69;5050982;28;20037;-77
2023/12/25 05:44:10;;;;;;;0.10;0.10;;;;;;;17.88;67.05;100467.00;5051188;28;20078;-77
2023/12/25 05:46:36;;;;;;;0.10;0.10;;;;;;;18.72;63.96;100466.56;5051448;28;20064;-77
2023/12/25 05:49:03;;;;;;;0.17;0.17;;;;;;;17.36;68.77;100472.13;5051416;28;20041;-76
2023/12/25 05:51:28;;;;;;;0.22;0.22;;;;;;;18.00;66.22;100458.47;5051415;28;20033;-76
2023/12/25 05:53:54;;;;;;;0.30;0.30;;;;;;;18.11;66.03;100477.16;5051104;28;20393;-77
2023/12/25 05:56:19;;;;;;;0.20;0.20;;;;;;;17.72;68.37;100480.94;5051155;28;20032;-75
2023/12/25 05:58:45;;;;;;;0.17;0.17;;;;;;;17.72;66.72;100481.75;5058115;28;20469;-77
2023/12/25 06:01:12;;;;;;;0.20;0.20;;;;;;;19.02;63.22;100488.03;5071159;28;20033;-76
2023/12/25 06:03:39;;;;;;;0.20;0.20;;;;;;;19.00;62.64;100497.59;5070909;28;20478;-76
2023/12/25 06:06:04;;;;;;;0.20;0.20;;;;;;;18.58;64.05;100503.72;5071149;28;20029;-76
2023/12/25 06:08:30;;;;;;;0.20;0.20;;;;;;;18.26;65.82;100501.50;5071633;28;20389;-76
2023/12/25 06:10:56;;;;;;;0.30;0.30;;;;;;;18.42;65.17;100502.19;5071144;28;20023;-75
2023/12/25 06:13:22;;;;;;;0.30;0.30;;;;;;;18.21;64.38;100501.56;5070957;28;20106;-77
2023/12/25 06:15:48;;;;;;;0.20;0.20;;;;;;;18.26;65.10;100509.66;5071575;28;20037;-76
2023/12/25 06:18:14;;;;;;;0.30;0.30;;;;;;;18.65;63.36;100496.06;5071356;28;20059;-78
2023/12/25 06:20:40;;;;;;;0.10;0.10;;;;;;;18.27;64.59;100524.91;5071183;28;20187;-76
2023/12/25 06:23:06;;;;;;;0.20;0.20;;;;;;;18.38;64.54;100520.19;5066295;28;20094;-77
2023/12/25 06:25:31;;;;;;;0.20;0.20;;;;;;;18.32;64.65;100521.31;5054157;28;20036;-76
2023/12/25 06:27:57;;;;;;;0.10;0.10;;;;;;;18.60;63.64;100528.75;5069876;28;20074;-76
2023/12/25 06:30:22;;;;;;;0.10;0.10;;;;;;;18.45;63.88;100528.06;5070807;28;20044;-76
2023/12/25 06:32:47;;;;;;;0.20;0.20;;;;;;;18.33;63.96;100531.94;5070725;28;20032;-76
2023/12/25 06:35:13;;;;;;;0.20;0.20;;;;;;;18.52;64.03;100529.34;5071354;28;20032;-75
2023/12/25 06:37:38;;;;;;;0.20;0.20;;;;;;;18.98;62.51;100516.13;5070750;28;20047;-75
2023/12/25 06:40:05;;;;;;;0.10;0.10;;;;;;;18.35;64.68;100516.13;5070529;28;20031;-75
2023/12/25 06:42:30;;;;;;;0.30;0.30;;;;;;;17.90;65.73;100518.34;5070467;28;20028;-77
2023/12/25 06:44:56;;;;;;;0.10;0.10;;;;;;;18.42;64.27;100511.19;5070615;28;20090;-75
2023/12/25 06:47:21;;;;;;;0.20;0.20;;;;;;;17.21;67.15;100519.19;5070427;28;20052;-75
2023/12/25 06:49:47;;;;;;;0.30;0.30;;;;;;;18.14;65.08;100525.53;5071128;28;20054;-75
2023/12/25 06:52:12;;;;;;;0.10;0.10;;;;;;;18.64;62.51;100526.25;5052610;28;20037;-76
2023/12/25 06:54:37;;;;;;;0.15;0.15;;;;;;;19.01;62.12;100523.72;5071211;28;20041;-76
2023/12/25 06:57:03;;;;;;;0.15;0.15;;;;;;;18.31;63.81;100527.88;5052344;28;20043;-76
2023/12/25 06:59:29;;;;;;;0.25;0.25;;;;;;;19.21;61.13;100520.78;5062911;28;20407;-76
2023/12/25 07:01:54;;;;;;;0.10;0.10;;;;;;;18.34;62.96;100517.22;5070986;28;20020;-75
2023/12/25 07:04:20;;;;;;;0.20;0.20;;;;;;;17.91;64.76;100531.66;5070138;28;20485;-76
2023/12/25 07:06:45;;;;;;;0.22;0.22;;;;;;;18.09;64.74;100543.78;5059657;28;20040;-77
2023/12/25 07:09:14;;;;;;;0.20;0.20;;;;;;;19.07;61.89;100541.63;5049993;28;20040;-76
2023/12/25 07:11:39;;;;;;;0.10;0.10;;;;;;;18.11;64.53;100549.75;5049692;28;20025;-77
2023/12/25 07:14:05;;;;;;;0.30;0.30;;;;;;;18.27;64.84;100549.38;5031904;28;20087;-75
2023/12/25 07:16:31;;;;;;;0.20;0.20;;;;;;;17.81;65.80;100552.66;5032298;28;20033;-76
2023/12/25 07:18:56;;;;;;;0.30;0.30;;;;;;;18.36;64.26;100547.69;5049979;28;20124;-77
2023/12/25 07:21:22;;;;;;;0.20;0.20;;;;;;;18.88;62.27;100549.72;5049853;28;20041;-76
2023/12/25 07:23:47;;;;;;;0.10;0.10;;;;;;;18.83;62.71;100547.03;5061251;28;20105;-76
2023/12/25 07:26:12;;;;;;;0.30;0.30;;;;;;;18.17;64.27;100544.00;5070477;28;20503;-74
2023/12/25 07:28:38;;;;;;;0.30;0.30;;;;;;;18.43;63.78;100555.56;5070325;28;20052;-76
2023/12/25 07:31:03;;;;;;;0.20;0.20;;;;;;;18.67;62.69;100558.34;5070603;28;20036;-76
2023/12/25 07:33:29;;;;;;;0.30;0.30;;;;;;;18.33;63.43;100558.31;5070423;28;20040;-76
2023/12/25 07:35:54;;;;;;;0.10;0.10;;;;;;;18.30;63.58;100572.47;5069373;28;20036;-77
2023/12/25 07:38:23;;;;;;;0.20;0.20;;;;;;;17.90;65.53;100561.84;5051777;28;20110;-75
2023/12/25 07:40:49;;;;;;;0.22;0.22;;;;;;;18.05;63.93;100556.31;5069695;28;20021;-75
2023/12/25 07:43:15;;;;;;;0.30;0.30;;;;;;;18.23;64.52;100567.38;5069446;28;20063;-74
2023/12/25 07:45:40;;;;;;;0.20;0.20;;;;;;;18.22;63.96;100568.44;5084781;28;20032;-74
2023/12/25 07:48:06;;;;;;;0.20;0.20;;;;;;;18.73;62.66;100566.19;5089468;28;20084;-74
2023/12/25 07:50:31;;;;;;;0.20;0.20;;;;;;;17.86;63.96;100580.63;5067923;28;20063;-76
2023/12/25 07:52:57;;;;;;;0.20;0.20;;;;;;;18.55;62.67;100583.22;5067497;28;20491;-75
2023/12/25 07:55:23;;;;;;;0.25;0.25;;;;;;;18.07;63.49;100587.59;5069880;28;20033;-76
2023/12/25 07:57:48;;;;;;;0.20;0.20;;;;;;;18.27;64.09;100581.22;5050777;28;20037;-76
2023/12/25 08:00:14;;;;;;;0.20;0.20;;;;;;;17.59;65.94;100590.25;5069667;28;20037;-74
2023/12/25 08:02:40;;;;;;;0.20;0.20;;;;;;;17.69;65.58;100584.78;5062130;28;20445;-76
2023/12/25 08:05:06;;;;;;;0.20;0.20;;;;;;;17.71;65.85;100594.28;5069407;28;20040;-77
2023/12/25 08:07:31;;;;;;;0.13;0.13;;;;;;;18.77;61.66;100599.13;5073045;28;20037;-75
2023/12/25 08:09:57;;;;;;;0.30;0.30;;;;;;;17.93;64.06;100597.44;5075816;28;20070;-75
2023/12/25 08:12:22;;;;;;;0.20;0.20;;;;;;;17.67;65.00;100601.34;5075756;28;20059;-74
2023/12/25 08:14:48;;;;;;;0.22;0.22;;;;;;;18.26;62.61;100620.38;5076110;28;20028;-75
2023/12/25 08:17:13;;;;;;;0.20;0.20;;;;;;;17.54;65.24;100615.53;5057952;28;20109;-75
2023/12/25 08:19:40;;;;;;;0.20;0.20;;;;;;;17.46;65.09;100608.75;5075983;28;20040;-75
2023/12/25 08:22:05;;;;;;;0.28;0.28;;;;;;;17.95;63.55;100614.28;5075730;28;20426;-76
2023/12/25 08:24:30;;;;;;;0.30;0.30;;;;;;;17.71;64.72;100618.72;5076167;28;20040;-78
2023/12/25 08:26:56;;;;;;;0.17;0.17;;;;;;;18.06;63.24;100618.56;5075871;28;20025;-76
2023/12/25 08:29:21;;;;;;;0.10;0.10;;;;;;;17.97;63.59;100614.81;5075929;28;20052;-73
2023/12/25 08:31:47;;;;;;;0.25;0.25;;;;;;;17.76;64.31;100628.78;5076401;28;20020;-75
2023/12/25 08:34:12;;;;;;;0.30;0.30;;;;;;;18.20;62.23;100608.72;5075794;28;20412;-76
2023/12/25 08:36:37;;;;;;;0.25;0.25;;;;;;;17.50;63.48;100601.69;5064837;28;20037;-75
2023/12/25 08:39:04;;;;;;;0.20;0.20;;;;;;;17.82;62.91;100617.63;5064540;28;20037;-77
2023/12/25 08:41:30;;;;;;;0.20;0.20;;;;;;;17.42;65.20;100636.72;5066095;28;20024;-74
2023/12/25 08:43:55;;;;;;;0.20;0.20;;;;;;;18.02;63.19;100638.47;5066249;28;20051;-76
2023/12/25 08:46:21;;;;;;;0.20;0.20;;;;;;;18.05;62.38;100630.56;5065669;28;20039;-75
2023/12/25 08:48:47;;;;;;;0.30;0.30;;;;;;;18.03;63.56;100631.91;5065758;28;20055;-75
2023/12/25 08:51:13;;;;;;;0.20;0.20;;;;;;;18.14;63.21;100639.75;5065592;28;20032;-75
2023/12/25 08:53:38;;;;;;;0.30;0.30;;;;;;;18.50;62.38;100642.28;5063976;28;20035;-75
2023/12/25 08:56:04;;;;;;;0.30;0.30;;;;;;;18.16;62.11;100634.06;5066057;28;20461;-75
2023/12/25 08:58:29;;;;;;;0.20;0.20;;;;;;;18.49;62.14;100646.94;5049073;28;20029;-76
2023/12/25 09:00:55;;;;;;;0.20;0.20;;;;;;;18.88;60.48;100636.88;5066493;28;20070;-75
2023/12/25 09:03:21;;;;;;;0.22;0.22;;;;;;;18.66;60.64;100641.94;5063581;28;20029;-76
2023/12/25 09:05:46;;;;;;;0.20;0.20;;;;;;;18.68;60.89;100645.19;5064722;28;20035;-76
2023/12/25 09:08:12;;;;;;;0.13;0.13;;;;;;;18.61;60.51;100639.25;5066640;28;20036;-74
2023/12/25 09:10:37;;;;;;;0.10;0.10;;;;;;;18.37;61.63;100638.28;5072470;28;20032;-73
2023/12/25 09:13:03;;;;;;;0.30;0.30;;;;;;;18.25;62.12;100652.22;5049074;28;20037;-74
2023/12/25 09:15:29;;;;;;;0.30;0.30;;;;;;;18.70;60.05;100645.72;5073799;28;20037;-76
2023/12/25 09:17:54;;;;;;;0.20;0.20;;;;;;;19.00;59.37;100655.56;5057258;28;20082;-75
2023/12/25 09:20:20;;;;;;;0.15;0.15;;;;;;;19.47;58.42;100663.03;5071295;28;20028;-75
2023/12/25 09:22:46;;;;;;;0.25;0.25;;;;;;;18.99;59.02;100654.72;5053526;28;20024;-74
2023/12/25 09:25:12;;;;;;;0.30;0.30;;;;;;;18.92;59.11;100662.44;5052650;28;20037;-74
2023/12/25 09:27:37;;;;;;;0.20;0.20;;;;;;;19.37;58.16;100655.78;5070720;28;20036;-75
2023/12/25 09:30:04;;;;;;;0.20;0.20;;;;;;;18.80;58.89;100659.25;5066281;28;20508;-74
2023/12/25 09:32:30;;;;;;;0.20;0.20;;;;;;;18.56;60.38;100660.22;5062066;28;20024;-75
2023/12/25 09:34:55;;;;;;;0.20;0.20;;;;;;;19.17;58.33;100662.22;5060518;28;20024;-75
2023/12/25 09:37:23;;;;;;;0.20;0.20;;;;;;;19.14;58.72;100659.25;5062472;28;20029;-75
2023/12/25 09:39:48;;;;;;;0.30;0.30;;;;;;;18.33;62.00;100669.88;5062699;28;20044;-74
2023/12/25 09:42:13;;;;;;;0.20;0.20;;;;;;;17.87;62.71;100673.84;5059736;28;20049;-74
2023/12/25 09:44:39;;;;;;;0.20;0.20;;;;;;;18.09;62.66;100674.31;5042691;28;20392;-76
2023/12/25 09:47:07;;;;;;;0.10;0.10;;;;;;;19.02;59.50;100662.34;5066844;28;20025;-74
2023/12/25 09:49:36;;;;;;;0.10;0.10;;;;;;;18.45;61.47;100667.66;5069826;28;20037;-76
2023/12/25 09:52:02;;;;;;;0.20;0.20;;;;;;;17.87;62.68;100671.13;5055145;28;20043;-77
2023/12/25 09:54:28;;;;;;;0.20;0.20;;;;;;;18.72;60.44;100675.38;5070658;28;20056;-75
2023/12/25 09:56:55;;;;;;;0.20;0.20;;;;;;;18.73;60.36;100680.50;5068203;28;20133;-76
2023/12/25 09:59:21;;;;;;;0.28;0.28;;;;;;;18.75;60.49;100689.22;5066706;28;20037;-76
2023/12/25 10:01:49;;;;;;;0.15;0.15;;;;;;;18.75;60.50;100697.38;5062485;28;20028;-75
2023/12/25 10:04:14;;;;;;;0.20;0.20;;;;;;;19.28;60.11;100685.53;5062871;28;20067;-75
2023/12/25 10:06:42;;;;;;;0.30;0.30;;;;;;;18.28;63.33;100708.78;5061335;28;20508;-76
2023/12/25 10:09:09;;;;;;;0.20;0.20;;;;;;;18.62;62.95;100708.09;5059507;28;20088;-77
2023/12/25 10:11:34;;;;;;;0.10;0.10;;;;;;;18.48;62.43;100705.19;5060195;28;20029;-76
2023/12/25 10:14:01;;;;;;;0.30;0.30;;;;;;;18.89;61.97;100716.63;5046738;28;20090;-77
2023/12/25 10:16:28;;;;;;;0.20;0.20;;;;;;;18.00;65.61;100704.00;5071692;28;20075;-77
2023/12/25 10:18:55;;;;;;;0.20;0.20;;;;;;;18.18;64.22;100699.88;5071252;28;20064;-76
2023/12/25 10:21:21;;;;;;;0.20;0.20;;;;;;;18.67;63.20;100687.09;5070927;28;20025;-77
2023/12/25 10:23:48;;;;;;;0.25;0.25;;;;;;;18.54;64.24;100679.56;5068978;28;20036;-76
2023/12/25 10:26:24;;;;;;;0.22;0.22;;;;;;;19.31;61.69;100684.16;5071171;28;20028;-76
2023/12/25 10:28:51;;;;;;;0.10;0.10;;;;;;;19.03;62.50;100687.66;5053250;28;20083;-76
2023/12/25 10:31:26;;;;;;;0.20;0.20;;;;;;;18.38;64.05;100697.84;5070937;28;20118;-78
2023/12/25 10:33:58;;;;;;;0.20;0.20;;;;;;;19.18;61.84;100699.22;5071102;28;20044;-77
2023/12/25 10:36:26;;;;;;;0.10;0.10;;;;;;;19.30;61.50;100693.44;5070676;28;20071;-76
2023/12/25 10:38:51;;;;;;;0.20;0.20;;;;;;;19.55;61.21;100697.84;5070555;28;20082;-77
2023/12/25 10:41:35;;;;;;;0.20;0.20;;;;;;;18.70;63.40;100691.16;5070438;28;20419;-76
2023/12/25 10:44:02;;;;;;;0.10;0.10;;;;;;;18.70;64.07;100683.00;5068432;28;20029;-77
2023/12/25 10:46:36;;;;;;;0.20;0.20;;;;;;;18.69;64.61;100682.19;5063691;28;20090;-77
2023/12/25 10:49:04;;;;;;;0.10;0.10;;;;;;;19.55;61.46;100690.50;5059699;28;20036;-76
2023/12/25 10:51:34;;;;;;;0.20;0.20;;;;;;;18.85;64.79;100696.53;5068464;28;20048;-77
2023/12/25 10:54:01;;;;;;;0.20;0.20;;;;;;;19.11;64.67;100687.03;5069546;28;20500;-77
2023/12/25 10:56:30;;;;;;;0.30;0.30;;;;;;;18.48;66.45;100685.31;5069251;28;20115;-77
2023/12/25 10:59:02;;;;;;;0.20;0.20;;;;;;;18.95;65.77;100685.53;5068505;28;20017;-77
2023/12/25 11:01:30;;;;;;;0.20;0.20;;;;;;;19.25;64.84;100677.94;5050247;28;20037;-78
2023/12/25 11:03:58;;;;;;;0.20;0.20;;;;;;;19.42;64.01;100676.75;5064346;28;20123;-77
2023/12/25 11:06:24;;;;;;;0.20;0.20;;;;;;;18.45;67.05;100670.38;5070989;28;20101;-77
2023/12/25 11:08:51;;;;;;;0.28;0.28;;;;;;;19.33;64.90;100668.34;5070445;28;20031;-77
2023/12/25 11:11:17;;;;;;;0.20;0.20;;;;;;;18.65;66.64;100664.00;5064698;28;20051;-76
2023/12/25 11:13:44;;;;;;;0.25;0.25;;;;;;;19.46;64.10;100669.63;5059999;28;20394;-77
2023/12/25 11:16:10;;;;;;;0.20;0.20;;;;;;;19.83;63.41;100680.66;5043800;28;20064;-77
2023/12/25 11:18:37;;;;;;;0.20;0.20;;;;;;;19.06;64.42;100670.75;5070269;28;20328;-78